<?xml version="1.0" encoding="UTF-8"?>
<gpx creator="Wikiloc - https://www.wikiloc.com" version="1.1" xmlns="http://www.topografix.com/GPX/1/1" xmlns:xsi="http://www.w3.org/2001/XMLSchema-instance" xsi:schemaLocation="http://www.topografix.com/GPX/1/1 http://www.topografix.com/GPX/1/1/gpx.xsd">
  <trk>
    <name>SL-BA 199 'Senda de la Pretura' (Fuenlabrada de los Montes)</name>
    <cmt>Más información en http://fexme.com/buscar-senderos/</cmt>
    <desc>Más información en http://fexme.com/buscar-senderos/</desc>
    <trkseg>
      <trkpt lat="39.130620" lon="-4.939260">
        <ele>528.4</ele>
        <time>2010-02-06T14:21:18Z</time>
      </trkpt>
      <trkpt lat="39.130620" lon="-4.939270">
        <ele>533.2</ele>
        <time>2010-02-06T14:23:10Z</time>
      </trkpt>
      <trkpt lat="39.130560" lon="-4.939270">
        <ele>530.3</ele>
        <time>2010-02-06T14:23:37Z</time>
      </trkpt>
      <trkpt lat="39.130380" lon="-4.939190">
        <ele>527.9</ele>
        <time>2010-02-06T14:23:59Z</time>
      </trkpt>
      <trkpt lat="39.130260" lon="-4.939229">
        <ele>526.9</ele>
        <time>2010-02-06T14:24:36Z</time>
      </trkpt>
      <trkpt lat="39.130230" lon="-4.939210">
        <ele>537.0</ele>
        <time>2010-02-06T14:25:10Z</time>
      </trkpt>
      <trkpt lat="39.130230" lon="-4.939240">
        <ele>534.6</ele>
        <time>2010-02-06T14:25:37Z</time>
      </trkpt>
      <trkpt lat="39.130070" lon="-4.939220">
        <ele>531.8</ele>
        <time>2010-02-06T14:26:05Z</time>
      </trkpt>
      <trkpt lat="39.129970" lon="-4.939230">
        <ele>536.1</ele>
        <time>2010-02-06T14:26:24Z</time>
      </trkpt>
      <trkpt lat="39.129910" lon="-4.939130">
        <ele>532.7</ele>
        <time>2010-02-06T14:27:20Z</time>
      </trkpt>
      <trkpt lat="39.129110" lon="-4.939180">
        <ele>521.7</ele>
        <time>2010-02-06T14:29:16Z</time>
      </trkpt>
      <trkpt lat="39.129040" lon="-4.939230">
        <ele>526.5</ele>
        <time>2010-02-06T14:30:42Z</time>
      </trkpt>
      <trkpt lat="39.128180" lon="-4.939240">
        <ele>522.6</ele>
        <time>2010-02-06T14:31:58Z</time>
      </trkpt>
      <trkpt lat="39.127990" lon="-4.939270">
        <ele>521.2</ele>
        <time>2010-02-06T14:32:18Z</time>
      </trkpt>
      <trkpt lat="39.127970" lon="-4.939290">
        <ele>520.7</ele>
        <time>2010-02-06T14:32:24Z</time>
      </trkpt>
      <trkpt lat="39.127880" lon="-4.939250">
        <ele>512.5</ele>
        <time>2010-02-06T14:32:31Z</time>
      </trkpt>
      <trkpt lat="39.127800" lon="-4.939320">
        <ele>519.7</ele>
        <time>2010-02-06T14:33:03Z</time>
      </trkpt>
      <trkpt lat="39.127790" lon="-4.939330">
        <ele>519.3</ele>
        <time>2010-02-06T14:33:05Z</time>
      </trkpt>
      <trkpt lat="39.127760" lon="-4.939370">
        <ele>518.8</ele>
        <time>2010-02-06T14:33:26Z</time>
      </trkpt>
      <trkpt lat="39.127760" lon="-4.939370">
        <ele>519.7</ele>
        <time>2010-02-06T14:33:36Z</time>
      </trkpt>
      <trkpt lat="39.127760" lon="-4.939360">
        <ele>520.7</ele>
        <time>2010-02-06T14:33:40Z</time>
      </trkpt>
      <trkpt lat="39.127750" lon="-4.939350">
        <ele>520.2</ele>
        <time>2010-02-06T14:33:53Z</time>
      </trkpt>
      <trkpt lat="39.127710" lon="-4.939390">
        <ele>520.7</ele>
        <time>2010-02-06T14:34:21Z</time>
      </trkpt>
      <trkpt lat="39.127490" lon="-4.939490">
        <ele>518.3</ele>
        <time>2010-02-06T14:34:39Z</time>
      </trkpt>
      <trkpt lat="39.127250" lon="-4.939520">
        <ele>517.3</ele>
        <time>2010-02-06T14:35:00Z</time>
      </trkpt>
      <trkpt lat="39.127170" lon="-4.939480">
        <ele>517.3</ele>
        <time>2010-02-06T14:35:14Z</time>
      </trkpt>
      <trkpt lat="39.127150" lon="-4.939440">
        <ele>518.3</ele>
        <time>2010-02-06T14:35:33Z</time>
      </trkpt>
      <trkpt lat="39.127130" lon="-4.939330">
        <ele>519.7</ele>
        <time>2010-02-06T14:35:49Z</time>
      </trkpt>
      <trkpt lat="39.127050" lon="-4.939180">
        <ele>522.1</ele>
        <time>2010-02-06T14:36:08Z</time>
      </trkpt>
      <trkpt lat="39.127040" lon="-4.939140">
        <ele>522.6</ele>
        <time>2010-02-06T14:36:12Z</time>
      </trkpt>
      <trkpt lat="39.126950" lon="-4.938920">
        <ele>520.7</ele>
        <time>2010-02-06T14:36:31Z</time>
      </trkpt>
      <trkpt lat="39.126880" lon="-4.938710">
        <ele>521.7</ele>
        <time>2010-02-06T14:36:49Z</time>
      </trkpt>
      <trkpt lat="39.126840" lon="-4.938610">
        <ele>523.1</ele>
        <time>2010-02-06T14:37:00Z</time>
      </trkpt>
      <trkpt lat="39.126790" lon="-4.938530">
        <ele>523.6</ele>
        <time>2010-02-06T14:37:09Z</time>
      </trkpt>
      <trkpt lat="39.126750" lon="-4.938400">
        <ele>523.6</ele>
        <time>2010-02-06T14:37:24Z</time>
      </trkpt>
      <trkpt lat="39.126620" lon="-4.938190">
        <ele>526.0</ele>
        <time>2010-02-06T14:37:44Z</time>
      </trkpt>
      <trkpt lat="39.126510" lon="-4.938000">
        <ele>527.9</ele>
        <time>2010-02-06T14:38:04Z</time>
      </trkpt>
      <trkpt lat="39.126400" lon="-4.937870">
        <ele>528.9</ele>
        <time>2010-02-06T14:38:22Z</time>
      </trkpt>
      <trkpt lat="39.126300" lon="-4.937770">
        <ele>528.9</ele>
        <time>2010-02-06T14:38:35Z</time>
      </trkpt>
      <trkpt lat="39.126130" lon="-4.937690">
        <ele>529.8</ele>
        <time>2010-02-06T14:38:54Z</time>
      </trkpt>
      <trkpt lat="39.126090" lon="-4.937670">
        <ele>529.3</ele>
        <time>2010-02-06T14:39:02Z</time>
      </trkpt>
      <trkpt lat="39.126020" lon="-4.937690">
        <ele>531.3</ele>
        <time>2010-02-06T14:39:32Z</time>
      </trkpt>
      <trkpt lat="39.126020" lon="-4.937670">
        <ele>534.6</ele>
        <time>2010-02-06T14:39:56Z</time>
      </trkpt>
      <trkpt lat="39.125820" lon="-4.937660">
        <ele>533.7</ele>
        <time>2010-02-06T14:40:17Z</time>
      </trkpt>
      <trkpt lat="39.125650" lon="-4.937680">
        <ele>532.7</ele>
        <time>2010-02-06T14:40:34Z</time>
      </trkpt>
      <trkpt lat="39.125480" lon="-4.937740">
        <ele>534.2</ele>
        <time>2010-02-06T14:40:53Z</time>
      </trkpt>
      <trkpt lat="39.125390" lon="-4.937770">
        <ele>535.1</ele>
        <time>2010-02-06T14:41:03Z</time>
      </trkpt>
      <trkpt lat="39.125300" lon="-4.937820">
        <ele>534.2</ele>
        <time>2010-02-06T14:41:14Z</time>
      </trkpt>
      <trkpt lat="39.125230" lon="-4.937750">
        <ele>535.1</ele>
        <time>2010-02-06T14:41:18Z</time>
      </trkpt>
      <trkpt lat="39.125230" lon="-4.937750">
        <ele>534.6</ele>
        <time>2010-02-06T14:41:21Z</time>
      </trkpt>
      <trkpt lat="39.124900" lon="-4.937870">
        <ele>528.9</ele>
        <time>2010-02-06T14:41:56Z</time>
      </trkpt>
      <trkpt lat="39.124720" lon="-4.937910">
        <ele>530.3</ele>
        <time>2010-02-06T14:42:14Z</time>
      </trkpt>
      <trkpt lat="39.124660" lon="-4.937900">
        <ele>529.3</ele>
        <time>2010-02-06T14:42:22Z</time>
      </trkpt>
      <trkpt lat="39.124650" lon="-4.937860">
        <ele>532.7</ele>
        <time>2010-02-06T14:42:42Z</time>
      </trkpt>
      <trkpt lat="39.124590" lon="-4.937890">
        <ele>531.3</ele>
        <time>2010-02-06T14:42:52Z</time>
      </trkpt>
      <trkpt lat="39.124420" lon="-4.937960">
        <ele>529.3</ele>
        <time>2010-02-06T14:43:10Z</time>
      </trkpt>
      <trkpt lat="39.124230" lon="-4.938030">
        <ele>528.9</ele>
        <time>2010-02-06T14:43:28Z</time>
      </trkpt>
      <trkpt lat="39.124000" lon="-4.938140">
        <ele>528.4</ele>
        <time>2010-02-06T14:43:51Z</time>
      </trkpt>
      <trkpt lat="39.123880" lon="-4.938190">
        <ele>528.4</ele>
        <time>2010-02-06T14:44:04Z</time>
      </trkpt>
      <trkpt lat="39.123670" lon="-4.938290">
        <ele>531.3</ele>
        <time>2010-02-06T14:44:28Z</time>
      </trkpt>
      <trkpt lat="39.123440" lon="-4.938350">
        <ele>529.3</ele>
        <time>2010-02-06T14:44:51Z</time>
      </trkpt>
      <trkpt lat="39.123350" lon="-4.938330">
        <ele>526.0</ele>
        <time>2010-02-06T14:45:49Z</time>
      </trkpt>
      <trkpt lat="39.123360" lon="-4.938360">
        <ele>527.4</ele>
        <time>2010-02-06T14:46:33Z</time>
      </trkpt>
      <trkpt lat="39.123320" lon="-4.938390">
        <ele>526.0</ele>
        <time>2010-02-06T14:46:39Z</time>
      </trkpt>
      <trkpt lat="39.123130" lon="-4.938450">
        <ele>526.0</ele>
        <time>2010-02-06T14:46:57Z</time>
      </trkpt>
      <trkpt lat="39.122910" lon="-4.938500">
        <ele>527.9</ele>
        <time>2010-02-06T14:47:17Z</time>
      </trkpt>
      <trkpt lat="39.122720" lon="-4.938530">
        <ele>526.0</ele>
        <time>2010-02-06T14:47:38Z</time>
      </trkpt>
      <trkpt lat="39.122510" lon="-4.938550">
        <ele>526.0</ele>
        <time>2010-02-06T14:47:59Z</time>
      </trkpt>
      <trkpt lat="39.122370" lon="-4.938530">
        <ele>526.0</ele>
        <time>2010-02-06T14:48:17Z</time>
      </trkpt>
      <trkpt lat="39.122320" lon="-4.938530">
        <ele>522.6</ele>
        <time>2010-02-06T14:48:40Z</time>
      </trkpt>
      <trkpt lat="39.122190" lon="-4.938540">
        <ele>521.7</ele>
        <time>2010-02-06T14:49:29Z</time>
      </trkpt>
      <trkpt lat="39.121980" lon="-4.938530">
        <ele>521.2</ele>
        <time>2010-02-06T14:49:52Z</time>
      </trkpt>
      <trkpt lat="39.121870" lon="-4.938530">
        <ele>521.7</ele>
        <time>2010-02-06T14:50:14Z</time>
      </trkpt>
      <trkpt lat="39.121660" lon="-4.938510">
        <ele>519.7</ele>
        <time>2010-02-06T14:50:30Z</time>
      </trkpt>
      <trkpt lat="39.121530" lon="-4.938490">
        <ele>521.7</ele>
        <time>2010-02-06T14:50:47Z</time>
      </trkpt>
      <trkpt lat="39.121340" lon="-4.938480">
        <ele>521.7</ele>
        <time>2010-02-06T14:51:04Z</time>
      </trkpt>
      <trkpt lat="39.121140" lon="-4.938470">
        <ele>523.6</ele>
        <time>2010-02-06T14:51:25Z</time>
      </trkpt>
      <trkpt lat="39.120960" lon="-4.938460">
        <ele>525.5</ele>
        <time>2010-02-06T14:51:45Z</time>
      </trkpt>
      <trkpt lat="39.120870" lon="-4.938450">
        <ele>525.5</ele>
        <time>2010-02-06T14:51:54Z</time>
      </trkpt>
      <trkpt lat="39.120700" lon="-4.938450">
        <ele>526.5</ele>
        <time>2010-02-06T14:52:11Z</time>
      </trkpt>
      <trkpt lat="39.120490" lon="-4.938450">
        <ele>526.5</ele>
        <time>2010-02-06T14:52:31Z</time>
      </trkpt>
      <trkpt lat="39.120470" lon="-4.938460">
        <ele>526.5</ele>
        <time>2010-02-06T14:52:32Z</time>
      </trkpt>
      <trkpt lat="39.120370" lon="-4.938470">
        <ele>527.4</ele>
        <time>2010-02-06T14:52:42Z</time>
      </trkpt>
      <trkpt lat="39.120340" lon="-4.938460">
        <ele>527.4</ele>
        <time>2010-02-06T14:52:45Z</time>
      </trkpt>
      <trkpt lat="39.120110" lon="-4.938480">
        <ele>526.0</ele>
        <time>2010-02-06T14:53:07Z</time>
      </trkpt>
      <trkpt lat="39.119960" lon="-4.938500">
        <ele>528.9</ele>
        <time>2010-02-06T14:53:23Z</time>
      </trkpt>
      <trkpt lat="39.119830" lon="-4.938470">
        <ele>527.9</ele>
        <time>2010-02-06T14:53:36Z</time>
      </trkpt>
      <trkpt lat="39.119730" lon="-4.938510">
        <ele>529.8</ele>
        <time>2010-02-06T14:53:54Z</time>
      </trkpt>
      <trkpt lat="39.119660" lon="-4.938510">
        <ele>529.8</ele>
        <time>2010-02-06T14:54:06Z</time>
      </trkpt>
      <trkpt lat="39.119450" lon="-4.938540">
        <ele>532.2</ele>
        <time>2010-02-06T14:54:25Z</time>
      </trkpt>
      <trkpt lat="39.119250" lon="-4.938560">
        <ele>533.7</ele>
        <time>2010-02-06T14:54:45Z</time>
      </trkpt>
      <trkpt lat="39.119070" lon="-4.938590">
        <ele>535.1</ele>
        <time>2010-02-06T14:55:03Z</time>
      </trkpt>
      <trkpt lat="39.118850" lon="-4.938580">
        <ele>534.6</ele>
        <time>2010-02-06T14:55:23Z</time>
      </trkpt>
      <trkpt lat="39.118680" lon="-4.938630">
        <ele>537.0</ele>
        <time>2010-02-06T14:55:44Z</time>
      </trkpt>
      <trkpt lat="39.118640" lon="-4.938640">
        <ele>532.7</ele>
        <time>2010-02-06T14:55:59Z</time>
      </trkpt>
      <trkpt lat="39.118570" lon="-4.938610">
        <ele>537.5</ele>
        <time>2010-02-06T14:56:19Z</time>
      </trkpt>
      <trkpt lat="39.118380" lon="-4.938650">
        <ele>537.5</ele>
        <time>2010-02-06T14:56:39Z</time>
      </trkpt>
      <trkpt lat="39.118330" lon="-4.938660">
        <ele>538.9</ele>
        <time>2010-02-06T14:56:43Z</time>
      </trkpt>
      <trkpt lat="39.118100" lon="-4.938670">
        <ele>539.4</ele>
        <time>2010-02-06T14:57:06Z</time>
      </trkpt>
      <trkpt lat="39.117910" lon="-4.938660">
        <ele>541.4</ele>
        <time>2010-02-06T14:57:26Z</time>
      </trkpt>
      <trkpt lat="39.117770" lon="-4.938660">
        <ele>543.3</ele>
        <time>2010-02-06T14:57:41Z</time>
      </trkpt>
      <trkpt lat="39.117620" lon="-4.938690">
        <ele>543.8</ele>
        <time>2010-02-06T14:57:56Z</time>
      </trkpt>
      <trkpt lat="39.117450" lon="-4.938680">
        <ele>542.8</ele>
        <time>2010-02-06T14:58:19Z</time>
      </trkpt>
      <trkpt lat="39.117440" lon="-4.938700">
        <ele>542.3</ele>
        <time>2010-02-06T14:58:21Z</time>
      </trkpt>
      <trkpt lat="39.117340" lon="-4.938780">
        <ele>543.8</ele>
        <time>2010-02-06T14:59:48Z</time>
      </trkpt>
      <trkpt lat="39.117130" lon="-4.938800">
        <ele>545.7</ele>
        <time>2010-02-06T15:00:09Z</time>
      </trkpt>
      <trkpt lat="39.116950" lon="-4.938820">
        <ele>545.7</ele>
        <time>2010-02-06T15:00:27Z</time>
      </trkpt>
      <trkpt lat="39.116730" lon="-4.938840">
        <ele>545.7</ele>
        <time>2010-02-06T15:00:49Z</time>
      </trkpt>
      <trkpt lat="39.116510" lon="-4.938880">
        <ele>545.7</ele>
        <time>2010-02-06T15:01:09Z</time>
      </trkpt>
      <trkpt lat="39.116290" lon="-4.938940">
        <ele>544.3</ele>
        <time>2010-02-06T15:01:31Z</time>
      </trkpt>
      <trkpt lat="39.116130" lon="-4.938970">
        <ele>545.2</ele>
        <time>2010-02-06T15:01:48Z</time>
      </trkpt>
      <trkpt lat="39.115910" lon="-4.939030">
        <ele>545.2</ele>
        <time>2010-02-06T15:02:11Z</time>
      </trkpt>
      <trkpt lat="39.115690" lon="-4.939090">
        <ele>545.7</ele>
        <time>2010-02-06T15:02:34Z</time>
      </trkpt>
      <trkpt lat="39.115540" lon="-4.939140">
        <ele>544.3</ele>
        <time>2010-02-06T15:02:51Z</time>
      </trkpt>
      <trkpt lat="39.115520" lon="-4.939150">
        <ele>543.3</ele>
        <time>2010-02-06T15:02:53Z</time>
      </trkpt>
      <trkpt lat="39.115300" lon="-4.939210">
        <ele>544.7</ele>
        <time>2010-02-06T15:03:13Z</time>
      </trkpt>
      <trkpt lat="39.115060" lon="-4.939290">
        <ele>545.2</ele>
        <time>2010-02-06T15:03:37Z</time>
      </trkpt>
      <trkpt lat="39.114830" lon="-4.939370">
        <ele>543.3</ele>
        <time>2010-02-06T15:04:01Z</time>
      </trkpt>
      <trkpt lat="39.114590" lon="-4.939460">
        <ele>545.7</ele>
        <time>2010-02-06T15:04:24Z</time>
      </trkpt>
      <trkpt lat="39.114400" lon="-4.939510">
        <ele>549.0</ele>
        <time>2010-02-06T15:04:42Z</time>
      </trkpt>
      <trkpt lat="39.114210" lon="-4.939600">
        <ele>548.6</ele>
        <time>2010-02-06T15:05:03Z</time>
      </trkpt>
      <trkpt lat="39.114080" lon="-4.939690">
        <ele>548.6</ele>
        <time>2010-02-06T15:05:26Z</time>
      </trkpt>
      <trkpt lat="39.114040" lon="-4.939690">
        <ele>548.1</ele>
        <time>2010-02-06T15:05:35Z</time>
      </trkpt>
      <trkpt lat="39.113850" lon="-4.939750">
        <ele>550.0</ele>
        <time>2010-02-06T15:05:54Z</time>
      </trkpt>
      <trkpt lat="39.113850" lon="-4.939760">
        <ele>550.5</ele>
        <time>2010-02-06T15:05:55Z</time>
      </trkpt>
      <trkpt lat="39.113840" lon="-4.939790">
        <ele>551.0</ele>
        <time>2010-02-06T15:05:58Z</time>
      </trkpt>
      <trkpt lat="39.113830" lon="-4.939870">
        <ele>550.5</ele>
        <time>2010-02-06T15:06:12Z</time>
      </trkpt>
      <trkpt lat="39.113840" lon="-4.939830">
        <ele>552.4</ele>
        <time>2010-02-06T15:06:48Z</time>
      </trkpt>
      <trkpt lat="39.113860" lon="-4.939840">
        <ele>553.4</ele>
        <time>2010-02-06T15:07:09Z</time>
      </trkpt>
      <trkpt lat="39.113840" lon="-4.939800">
        <ele>551.9</ele>
        <time>2010-02-06T15:07:18Z</time>
      </trkpt>
      <trkpt lat="39.113600" lon="-4.939760">
        <ele>551.4</ele>
        <time>2010-02-06T15:07:40Z</time>
      </trkpt>
      <trkpt lat="39.113380" lon="-4.939800">
        <ele>548.6</ele>
        <time>2010-02-06T15:08:02Z</time>
      </trkpt>
      <trkpt lat="39.113380" lon="-4.939790">
        <ele>548.6</ele>
        <time>2010-02-06T15:08:03Z</time>
      </trkpt>
      <trkpt lat="39.113150" lon="-4.939770">
        <ele>551.9</ele>
        <time>2010-02-06T15:08:26Z</time>
      </trkpt>
      <trkpt lat="39.113120" lon="-4.939770">
        <ele>552.9</ele>
        <time>2010-02-06T15:08:29Z</time>
      </trkpt>
      <trkpt lat="39.113040" lon="-4.939770">
        <ele>552.4</ele>
        <time>2010-02-06T15:08:48Z</time>
      </trkpt>
      <trkpt lat="39.113030" lon="-4.939750">
        <ele>551.4</ele>
        <time>2010-02-06T15:09:36Z</time>
      </trkpt>
      <trkpt lat="39.113010" lon="-4.939740">
        <ele>552.9</ele>
        <time>2010-02-06T15:09:47Z</time>
      </trkpt>
      <trkpt lat="39.112930" lon="-4.939760">
        <ele>553.9</ele>
        <time>2010-02-06T15:09:54Z</time>
      </trkpt>
      <trkpt lat="39.112760" lon="-4.939790">
        <ele>553.9</ele>
        <time>2010-02-06T15:10:16Z</time>
      </trkpt>
      <trkpt lat="39.112730" lon="-4.939830">
        <ele>550.5</ele>
        <time>2010-02-06T15:10:36Z</time>
      </trkpt>
      <trkpt lat="39.112660" lon="-4.939840">
        <ele>551.0</ele>
        <time>2010-02-06T15:10:54Z</time>
      </trkpt>
      <trkpt lat="39.112510" lon="-4.939880">
        <ele>548.6</ele>
        <time>2010-02-06T15:11:16Z</time>
      </trkpt>
      <trkpt lat="39.112480" lon="-4.939910">
        <ele>549.0</ele>
        <time>2010-02-06T15:11:20Z</time>
      </trkpt>
      <trkpt lat="39.112300" lon="-4.939960">
        <ele>550.0</ele>
        <time>2010-02-06T15:11:41Z</time>
      </trkpt>
      <trkpt lat="39.112270" lon="-4.939980">
        <ele>550.0</ele>
        <time>2010-02-06T15:11:44Z</time>
      </trkpt>
      <trkpt lat="39.112240" lon="-4.939960">
        <ele>549.5</ele>
        <time>2010-02-06T15:11:46Z</time>
      </trkpt>
      <trkpt lat="39.112210" lon="-4.939940">
        <ele>551.0</ele>
        <time>2010-02-06T15:11:49Z</time>
      </trkpt>
      <trkpt lat="39.112010" lon="-4.940040">
        <ele>550.5</ele>
        <time>2010-02-06T15:12:11Z</time>
      </trkpt>
      <trkpt lat="39.111820" lon="-4.940130">
        <ele>549.5</ele>
        <time>2010-02-06T15:12:30Z</time>
      </trkpt>
      <trkpt lat="39.111780" lon="-4.940150">
        <ele>549.0</ele>
        <time>2010-02-06T15:12:34Z</time>
      </trkpt>
      <trkpt lat="39.111610" lon="-4.940240">
        <ele>552.4</ele>
        <time>2010-02-06T15:12:52Z</time>
      </trkpt>
      <trkpt lat="39.111410" lon="-4.940310">
        <ele>556.7</ele>
        <time>2010-02-06T15:13:14Z</time>
      </trkpt>
      <trkpt lat="39.111220" lon="-4.940400">
        <ele>555.8</ele>
        <time>2010-02-06T15:13:35Z</time>
      </trkpt>
      <trkpt lat="39.111010" lon="-4.940500">
        <ele>556.3</ele>
        <time>2010-02-06T15:13:57Z</time>
      </trkpt>
      <trkpt lat="39.110850" lon="-4.940560">
        <ele>558.2</ele>
        <time>2010-02-06T15:14:14Z</time>
      </trkpt>
      <trkpt lat="39.110660" lon="-4.940630">
        <ele>560.1</ele>
        <time>2010-02-06T15:14:33Z</time>
      </trkpt>
      <trkpt lat="39.110510" lon="-4.940720">
        <ele>560.6</ele>
        <time>2010-02-06T15:14:50Z</time>
      </trkpt>
      <trkpt lat="39.110340" lon="-4.940790">
        <ele>563.0</ele>
        <time>2010-02-06T15:15:09Z</time>
      </trkpt>
      <trkpt lat="39.110190" lon="-4.940840">
        <ele>562.0</ele>
        <time>2010-02-06T15:15:26Z</time>
      </trkpt>
      <trkpt lat="39.110170" lon="-4.940880">
        <ele>563.5</ele>
        <time>2010-02-06T15:15:47Z</time>
      </trkpt>
      <trkpt lat="39.110140" lon="-4.940890">
        <ele>562.0</ele>
        <time>2010-02-06T15:15:57Z</time>
      </trkpt>
      <trkpt lat="39.110060" lon="-4.940860">
        <ele>570.2</ele>
        <time>2010-02-06T15:16:15Z</time>
      </trkpt>
      <trkpt lat="39.109940" lon="-4.940890">
        <ele>570.2</ele>
        <time>2010-02-06T15:16:37Z</time>
      </trkpt>
      <trkpt lat="39.109760" lon="-4.940940">
        <ele>570.7</ele>
        <time>2010-02-06T15:16:56Z</time>
      </trkpt>
      <trkpt lat="39.109610" lon="-4.940970">
        <ele>568.8</ele>
        <time>2010-02-06T15:17:17Z</time>
      </trkpt>
      <trkpt lat="39.109560" lon="-4.940950">
        <ele>569.7</ele>
        <time>2010-02-06T15:17:30Z</time>
      </trkpt>
      <trkpt lat="39.109490" lon="-4.940950">
        <ele>571.2</ele>
        <time>2010-02-06T15:17:39Z</time>
      </trkpt>
      <trkpt lat="39.109320" lon="-4.940960">
        <ele>574.5</ele>
        <time>2010-02-06T15:17:55Z</time>
      </trkpt>
      <trkpt lat="39.109230" lon="-4.940970">
        <ele>576.4</ele>
        <time>2010-02-06T15:18:10Z</time>
      </trkpt>
      <trkpt lat="39.109030" lon="-4.941040">
        <ele>576.0</ele>
        <time>2010-02-06T15:18:28Z</time>
      </trkpt>
      <trkpt lat="39.108850" lon="-4.941120">
        <ele>576.9</ele>
        <time>2010-02-06T15:18:47Z</time>
      </trkpt>
      <trkpt lat="39.108460" lon="-4.941280">
        <ele>578.4</ele>
        <time>2010-02-06T15:19:28Z</time>
      </trkpt>
      <trkpt lat="39.108390" lon="-4.941260">
        <ele>579.8</ele>
        <time>2010-02-06T15:19:35Z</time>
      </trkpt>
      <trkpt lat="39.108310" lon="-4.941310">
        <ele>582.7</ele>
        <time>2010-02-06T15:19:50Z</time>
      </trkpt>
      <trkpt lat="39.108230" lon="-4.941370">
        <ele>586.5</ele>
        <time>2010-02-06T15:20:02Z</time>
      </trkpt>
      <trkpt lat="39.108140" lon="-4.941420">
        <ele>588.0</ele>
        <time>2010-02-06T15:20:17Z</time>
      </trkpt>
      <trkpt lat="39.107970" lon="-4.941560">
        <ele>589.4</ele>
        <time>2010-02-06T15:20:36Z</time>
      </trkpt>
      <trkpt lat="39.107810" lon="-4.941700">
        <ele>594.2</ele>
        <time>2010-02-06T15:20:56Z</time>
      </trkpt>
      <trkpt lat="39.107750" lon="-4.941780">
        <ele>592.3</ele>
        <time>2010-02-06T15:21:11Z</time>
      </trkpt>
      <trkpt lat="39.107800" lon="-4.941770">
        <ele>599.5</ele>
        <time>2010-02-06T15:21:48Z</time>
      </trkpt>
      <trkpt lat="39.107780" lon="-4.941780">
        <ele>592.8</ele>
        <time>2010-02-06T15:22:42Z</time>
      </trkpt>
      <trkpt lat="39.107790" lon="-4.941770">
        <ele>594.7</ele>
        <time>2010-02-06T15:23:52Z</time>
      </trkpt>
      <trkpt lat="39.107760" lon="-4.941730">
        <ele>592.3</ele>
        <time>2010-02-06T15:25:39Z</time>
      </trkpt>
      <trkpt lat="39.107800" lon="-4.941680">
        <ele>593.8</ele>
        <time>2010-02-06T15:25:53Z</time>
      </trkpt>
      <trkpt lat="39.107790" lon="-4.941710">
        <ele>594.7</ele>
        <time>2010-02-06T15:26:24Z</time>
      </trkpt>
      <trkpt lat="39.107820" lon="-4.941680">
        <ele>598.1</ele>
        <time>2010-02-06T15:27:04Z</time>
      </trkpt>
      <trkpt lat="39.107740" lon="-4.941750">
        <ele>596.6</ele>
        <time>2010-02-06T15:27:27Z</time>
      </trkpt>
      <trkpt lat="39.107590" lon="-4.941900">
        <ele>599.0</ele>
        <time>2010-02-06T15:27:46Z</time>
      </trkpt>
      <trkpt lat="39.107380" lon="-4.942090">
        <ele>598.1</ele>
        <time>2010-02-06T15:28:11Z</time>
      </trkpt>
      <trkpt lat="39.107120" lon="-4.942280">
        <ele>597.6</ele>
        <time>2010-02-06T15:28:42Z</time>
      </trkpt>
      <trkpt lat="39.106860" lon="-4.942430">
        <ele>597.1</ele>
        <time>2010-02-06T15:29:07Z</time>
      </trkpt>
      <trkpt lat="39.106660" lon="-4.942510">
        <ele>597.6</ele>
        <time>2010-02-06T15:29:26Z</time>
      </trkpt>
      <trkpt lat="39.106490" lon="-4.942560">
        <ele>596.6</ele>
        <time>2010-02-06T15:29:43Z</time>
      </trkpt>
      <trkpt lat="39.106390" lon="-4.942640">
        <ele>594.2</ele>
        <time>2010-02-06T15:29:59Z</time>
      </trkpt>
      <trkpt lat="39.106430" lon="-4.942590">
        <ele>592.3</ele>
        <time>2010-02-06T15:30:44Z</time>
      </trkpt>
      <trkpt lat="39.106270" lon="-4.942590">
        <ele>594.7</ele>
        <time>2010-02-06T15:31:06Z</time>
      </trkpt>
      <trkpt lat="39.106130" lon="-4.942600">
        <ele>593.8</ele>
        <time>2010-02-06T15:31:22Z</time>
      </trkpt>
      <trkpt lat="39.106070" lon="-4.942610">
        <ele>592.8</ele>
        <time>2010-02-06T15:31:36Z</time>
      </trkpt>
      <trkpt lat="39.105860" lon="-4.942670">
        <ele>591.3</ele>
        <time>2010-02-06T15:31:58Z</time>
      </trkpt>
      <trkpt lat="39.105780" lon="-4.942660">
        <ele>590.9</ele>
        <time>2010-02-06T15:32:06Z</time>
      </trkpt>
      <trkpt lat="39.105750" lon="-4.942680">
        <ele>590.9</ele>
        <time>2010-02-06T15:32:09Z</time>
      </trkpt>
      <trkpt lat="39.105560" lon="-4.942730">
        <ele>591.3</ele>
        <time>2010-02-06T15:32:27Z</time>
      </trkpt>
      <trkpt lat="39.105390" lon="-4.942750">
        <ele>591.8</ele>
        <time>2010-02-06T15:32:52Z</time>
      </trkpt>
      <trkpt lat="39.105250" lon="-4.942770">
        <ele>590.4</ele>
        <time>2010-02-06T15:33:05Z</time>
      </trkpt>
      <trkpt lat="39.105060" lon="-4.942810">
        <ele>586.5</ele>
        <time>2010-02-06T15:33:25Z</time>
      </trkpt>
      <trkpt lat="39.105040" lon="-4.942800">
        <ele>586.1</ele>
        <time>2010-02-06T15:33:48Z</time>
      </trkpt>
      <trkpt lat="39.104970" lon="-4.942820">
        <ele>583.7</ele>
        <time>2010-02-06T15:34:09Z</time>
      </trkpt>
      <trkpt lat="39.104980" lon="-4.942820">
        <ele>583.7</ele>
        <time>2010-02-06T15:34:20Z</time>
      </trkpt>
      <trkpt lat="39.104800" lon="-4.942860">
        <ele>584.1</ele>
        <time>2010-02-06T15:34:57Z</time>
      </trkpt>
      <trkpt lat="39.104600" lon="-4.942870">
        <ele>584.6</ele>
        <time>2010-02-06T15:35:15Z</time>
      </trkpt>
      <trkpt lat="39.104480" lon="-4.942910">
        <ele>582.7</ele>
        <time>2010-02-06T15:35:30Z</time>
      </trkpt>
      <trkpt lat="39.104350" lon="-4.942960">
        <ele>580.8</ele>
        <time>2010-02-06T15:35:44Z</time>
      </trkpt>
      <trkpt lat="39.104190" lon="-4.943050">
        <ele>581.3</ele>
        <time>2010-02-06T15:36:01Z</time>
      </trkpt>
      <trkpt lat="39.104020" lon="-4.943120">
        <ele>579.3</ele>
        <time>2010-02-06T15:36:20Z</time>
      </trkpt>
      <trkpt lat="39.103860" lon="-4.943180">
        <ele>577.9</ele>
        <time>2010-02-06T15:36:37Z</time>
      </trkpt>
      <trkpt lat="39.103700" lon="-4.943220">
        <ele>576.9</ele>
        <time>2010-02-06T15:36:54Z</time>
      </trkpt>
      <trkpt lat="39.103550" lon="-4.943270">
        <ele>575.0</ele>
        <time>2010-02-06T15:37:09Z</time>
      </trkpt>
      <trkpt lat="39.103380" lon="-4.943340">
        <ele>575.0</ele>
        <time>2010-02-06T15:37:27Z</time>
      </trkpt>
      <trkpt lat="39.103220" lon="-4.943410">
        <ele>572.6</ele>
        <time>2010-02-06T15:37:44Z</time>
      </trkpt>
      <trkpt lat="39.103060" lon="-4.943440">
        <ele>571.7</ele>
        <time>2010-02-06T15:38:01Z</time>
      </trkpt>
      <trkpt lat="39.102850" lon="-4.943400">
        <ele>570.2</ele>
        <time>2010-02-06T15:38:22Z</time>
      </trkpt>
      <trkpt lat="39.102760" lon="-4.943320">
        <ele>570.7</ele>
        <time>2010-02-06T15:38:41Z</time>
      </trkpt>
      <trkpt lat="39.102640" lon="-4.943200">
        <ele>570.2</ele>
        <time>2010-02-06T15:38:54Z</time>
      </trkpt>
      <trkpt lat="39.102470" lon="-4.943000">
        <ele>567.8</ele>
        <time>2010-02-06T15:39:13Z</time>
      </trkpt>
      <trkpt lat="39.102410" lon="-4.942920">
        <ele>567.8</ele>
        <time>2010-02-06T15:39:30Z</time>
      </trkpt>
      <trkpt lat="39.102400" lon="-4.942930">
        <ele>569.2</ele>
        <time>2010-02-06T15:39:48Z</time>
      </trkpt>
      <trkpt lat="39.102370" lon="-4.942820">
        <ele>565.4</ele>
        <time>2010-02-06T15:40:16Z</time>
      </trkpt>
      <trkpt lat="39.102350" lon="-4.942830">
        <ele>564.4</ele>
        <time>2010-02-06T15:40:33Z</time>
      </trkpt>
      <trkpt lat="39.102310" lon="-4.942830">
        <ele>563.9</ele>
        <time>2010-02-06T15:40:37Z</time>
      </trkpt>
      <trkpt lat="39.102130" lon="-4.942640">
        <ele>561.1</ele>
        <time>2010-02-06T15:41:00Z</time>
      </trkpt>
      <trkpt lat="39.101990" lon="-4.942430">
        <ele>559.6</ele>
        <time>2010-02-06T15:41:20Z</time>
      </trkpt>
      <trkpt lat="39.101840" lon="-4.942200">
        <ele>558.2</ele>
        <time>2010-02-06T15:41:41Z</time>
      </trkpt>
      <trkpt lat="39.101730" lon="-4.942030">
        <ele>555.8</ele>
        <time>2010-02-06T15:41:59Z</time>
      </trkpt>
      <trkpt lat="39.101680" lon="-4.941950">
        <ele>553.4</ele>
        <time>2010-02-06T15:42:13Z</time>
      </trkpt>
      <trkpt lat="39.101690" lon="-4.941920">
        <ele>549.5</ele>
        <time>2010-02-06T15:42:46Z</time>
      </trkpt>
      <trkpt lat="39.101590" lon="-4.941690">
        <ele>551.0</ele>
        <time>2010-02-06T15:43:04Z</time>
      </trkpt>
      <trkpt lat="39.101490" lon="-4.941430">
        <ele>550.0</ele>
        <time>2010-02-06T15:43:27Z</time>
      </trkpt>
      <trkpt lat="39.101380" lon="-4.941160">
        <ele>548.6</ele>
        <time>2010-02-06T15:43:48Z</time>
      </trkpt>
      <trkpt lat="39.101310" lon="-4.940950">
        <ele>546.7</ele>
        <time>2010-02-06T15:44:05Z</time>
      </trkpt>
      <trkpt lat="39.101200" lon="-4.940680">
        <ele>546.2</ele>
        <time>2010-02-06T15:44:25Z</time>
      </trkpt>
      <trkpt lat="39.101080" lon="-4.940530">
        <ele>541.8</ele>
        <time>2010-02-06T15:44:45Z</time>
      </trkpt>
      <trkpt lat="39.100970" lon="-4.940450">
        <ele>538.9</ele>
        <time>2010-02-06T15:44:59Z</time>
      </trkpt>
      <trkpt lat="39.100800" lon="-4.940330">
        <ele>536.1</ele>
        <time>2010-02-06T15:45:19Z</time>
      </trkpt>
      <trkpt lat="39.100660" lon="-4.940230">
        <ele>534.2</ele>
        <time>2010-02-06T15:45:34Z</time>
      </trkpt>
      <trkpt lat="39.100630" lon="-4.940210">
        <ele>532.7</ele>
        <time>2010-02-06T15:45:38Z</time>
      </trkpt>
      <trkpt lat="39.100610" lon="-4.940200">
        <ele>531.8</ele>
        <time>2010-02-06T15:45:41Z</time>
      </trkpt>
      <trkpt lat="39.100460" lon="-4.940130">
        <ele>529.3</ele>
        <time>2010-02-06T15:45:58Z</time>
      </trkpt>
      <trkpt lat="39.100440" lon="-4.940120">
        <ele>527.9</ele>
        <time>2010-02-06T15:46:01Z</time>
      </trkpt>
      <trkpt lat="39.100410" lon="-4.940090">
        <ele>526.9</ele>
        <time>2010-02-06T15:46:04Z</time>
      </trkpt>
      <trkpt lat="39.100220" lon="-4.940010">
        <ele>524.0</ele>
        <time>2010-02-06T15:46:24Z</time>
      </trkpt>
      <trkpt lat="39.100040" lon="-4.939970">
        <ele>522.1</ele>
        <time>2010-02-06T15:46:43Z</time>
      </trkpt>
      <trkpt lat="39.099830" lon="-4.939970">
        <ele>521.7</ele>
        <time>2010-02-06T15:47:01Z</time>
      </trkpt>
      <trkpt lat="39.099610" lon="-4.940000">
        <ele>522.1</ele>
        <time>2010-02-06T15:47:19Z</time>
      </trkpt>
      <trkpt lat="39.099420" lon="-4.940020">
        <ele>520.7</ele>
        <time>2010-02-06T15:47:37Z</time>
      </trkpt>
      <trkpt lat="39.099250" lon="-4.940040">
        <ele>518.3</ele>
        <time>2010-02-06T15:47:53Z</time>
      </trkpt>
      <trkpt lat="39.099040" lon="-4.940070">
        <ele>518.3</ele>
        <time>2010-02-06T15:48:12Z</time>
      </trkpt>
      <trkpt lat="39.098880" lon="-4.940100">
        <ele>516.8</ele>
        <time>2010-02-06T15:48:29Z</time>
      </trkpt>
      <trkpt lat="39.098710" lon="-4.940140">
        <ele>514.9</ele>
        <time>2010-02-06T15:48:47Z</time>
      </trkpt>
      <trkpt lat="39.098530" lon="-4.940200">
        <ele>513.5</ele>
        <time>2010-02-06T15:49:05Z</time>
      </trkpt>
      <trkpt lat="39.098450" lon="-4.940190">
        <ele>510.6</ele>
        <time>2010-02-06T15:49:26Z</time>
      </trkpt>
      <trkpt lat="39.098300" lon="-4.940220">
        <ele>512.0</ele>
        <time>2010-02-06T15:49:57Z</time>
      </trkpt>
      <trkpt lat="39.098260" lon="-4.940220">
        <ele>512.0</ele>
        <time>2010-02-06T15:50:01Z</time>
      </trkpt>
      <trkpt lat="39.098110" lon="-4.940160">
        <ele>512.0</ele>
        <time>2010-02-06T15:50:17Z</time>
      </trkpt>
      <trkpt lat="39.097950" lon="-4.940140">
        <ele>513.5</ele>
        <time>2010-02-06T15:50:31Z</time>
      </trkpt>
      <trkpt lat="39.097780" lon="-4.940110">
        <ele>513.0</ele>
        <time>2010-02-06T15:50:50Z</time>
      </trkpt>
      <trkpt lat="39.097650" lon="-4.940100">
        <ele>513.5</ele>
        <time>2010-02-06T15:51:33Z</time>
      </trkpt>
      <trkpt lat="39.097400" lon="-4.940140">
        <ele>514.4</ele>
        <time>2010-02-06T15:51:57Z</time>
      </trkpt>
      <trkpt lat="39.097260" lon="-4.940150">
        <ele>514.4</ele>
        <time>2010-02-06T15:52:12Z</time>
      </trkpt>
      <trkpt lat="39.097220" lon="-4.940100">
        <ele>513.5</ele>
        <time>2010-02-06T15:52:20Z</time>
      </trkpt>
      <trkpt lat="39.097180" lon="-4.940020">
        <ele>512.0</ele>
        <time>2010-02-06T15:52:38Z</time>
      </trkpt>
      <trkpt lat="39.097180" lon="-4.940030">
        <ele>511.1</ele>
        <time>2010-02-06T15:53:05Z</time>
      </trkpt>
      <trkpt lat="39.097180" lon="-4.940030">
        <ele>511.1</ele>
        <time>2010-02-06T15:53:06Z</time>
      </trkpt>
      <trkpt lat="39.097150" lon="-4.939760">
        <ele>512.5</ele>
        <time>2010-02-06T15:53:25Z</time>
      </trkpt>
      <trkpt lat="39.097110" lon="-4.939650">
        <ele>517.3</ele>
        <time>2010-02-06T15:53:39Z</time>
      </trkpt>
      <trkpt lat="39.097110" lon="-4.939640">
        <ele>516.4</ele>
        <time>2010-02-06T15:53:43Z</time>
      </trkpt>
      <trkpt lat="39.097030" lon="-4.939550">
        <ele>514.9</ele>
        <time>2010-02-06T15:53:54Z</time>
      </trkpt>
      <trkpt lat="39.096890" lon="-4.939660">
        <ele>516.4</ele>
        <time>2010-02-06T15:54:08Z</time>
      </trkpt>
      <trkpt lat="39.096700" lon="-4.939740">
        <ele>515.4</ele>
        <time>2010-02-06T15:54:29Z</time>
      </trkpt>
      <trkpt lat="39.096610" lon="-4.939790">
        <ele>514.0</ele>
        <time>2010-02-06T15:54:43Z</time>
      </trkpt>
      <trkpt lat="39.096620" lon="-4.939860">
        <ele>509.6</ele>
        <time>2010-02-06T15:54:51Z</time>
      </trkpt>
      <trkpt lat="39.096590" lon="-4.939850">
        <ele>509.2</ele>
        <time>2010-02-06T15:55:36Z</time>
      </trkpt>
      <trkpt lat="39.096640" lon="-4.939810">
        <ele>511.1</ele>
        <time>2010-02-06T15:55:56Z</time>
      </trkpt>
      <trkpt lat="39.096710" lon="-4.939750">
        <ele>510.6</ele>
        <time>2010-02-06T15:56:14Z</time>
      </trkpt>
      <trkpt lat="39.096670" lon="-4.939770">
        <ele>510.1</ele>
        <time>2010-02-06T15:56:23Z</time>
      </trkpt>
      <trkpt lat="39.096590" lon="-4.939830">
        <ele>511.5</ele>
        <time>2010-02-06T15:56:39Z</time>
      </trkpt>
      <trkpt lat="39.096530" lon="-4.939750">
        <ele>510.6</ele>
        <time>2010-02-06T15:56:50Z</time>
      </trkpt>
      <trkpt lat="39.096520" lon="-4.939700">
        <ele>511.1</ele>
        <time>2010-02-06T15:56:53Z</time>
      </trkpt>
      <trkpt lat="39.096530" lon="-4.939650">
        <ele>511.5</ele>
        <time>2010-02-06T15:56:58Z</time>
      </trkpt>
      <trkpt lat="39.096460" lon="-4.939560">
        <ele>511.5</ele>
        <time>2010-02-06T15:57:15Z</time>
      </trkpt>
      <trkpt lat="39.096460" lon="-4.939590">
        <ele>511.1</ele>
        <time>2010-02-06T15:57:33Z</time>
      </trkpt>
      <trkpt lat="39.096420" lon="-4.939350">
        <ele>514.0</ele>
        <time>2010-02-06T15:57:52Z</time>
      </trkpt>
      <trkpt lat="39.096420" lon="-4.939300">
        <ele>513.5</ele>
        <time>2010-02-06T15:57:57Z</time>
      </trkpt>
      <trkpt lat="39.096360" lon="-4.939060">
        <ele>514.9</ele>
        <time>2010-02-06T15:58:14Z</time>
      </trkpt>
      <trkpt lat="39.096280" lon="-4.938790">
        <ele>516.8</ele>
        <time>2010-02-06T15:58:32Z</time>
      </trkpt>
      <trkpt lat="39.096230" lon="-4.938590">
        <ele>514.0</ele>
        <time>2010-02-06T15:58:50Z</time>
      </trkpt>
      <trkpt lat="39.096190" lon="-4.938360">
        <ele>510.6</ele>
        <time>2010-02-06T15:59:09Z</time>
      </trkpt>
      <trkpt lat="39.096130" lon="-4.938120">
        <ele>508.7</ele>
        <time>2010-02-06T15:59:27Z</time>
      </trkpt>
      <trkpt lat="39.096070" lon="-4.937890">
        <ele>506.3</ele>
        <time>2010-02-06T15:59:46Z</time>
      </trkpt>
      <trkpt lat="39.096030" lon="-4.937720">
        <ele>505.3</ele>
        <time>2010-02-06T16:00:06Z</time>
      </trkpt>
      <trkpt lat="39.095990" lon="-4.937550">
        <ele>504.8</ele>
        <time>2010-02-06T16:00:20Z</time>
      </trkpt>
      <trkpt lat="39.095960" lon="-4.937440">
        <ele>503.4</ele>
        <time>2010-02-06T16:00:36Z</time>
      </trkpt>
      <trkpt lat="39.095970" lon="-4.937270">
        <ele>501.9</ele>
        <time>2010-02-06T16:00:59Z</time>
      </trkpt>
      <trkpt lat="39.095940" lon="-4.937110">
        <ele>501.5</ele>
        <time>2010-02-06T16:01:13Z</time>
      </trkpt>
      <trkpt lat="39.095840" lon="-4.936880">
        <ele>502.9</ele>
        <time>2010-02-06T16:01:31Z</time>
      </trkpt>
      <trkpt lat="39.095760" lon="-4.936660">
        <ele>503.4</ele>
        <time>2010-02-06T16:01:51Z</time>
      </trkpt>
      <trkpt lat="39.095700" lon="-4.936380">
        <ele>503.4</ele>
        <time>2010-02-06T16:02:10Z</time>
      </trkpt>
      <trkpt lat="39.095630" lon="-4.936100">
        <ele>504.8</ele>
        <time>2010-02-06T16:02:30Z</time>
      </trkpt>
      <trkpt lat="39.095550" lon="-4.935820">
        <ele>507.7</ele>
        <time>2010-02-06T16:02:49Z</time>
      </trkpt>
      <trkpt lat="39.095490" lon="-4.935600">
        <ele>509.6</ele>
        <time>2010-02-06T16:03:04Z</time>
      </trkpt>
      <trkpt lat="39.095430" lon="-4.935360">
        <ele>506.8</ele>
        <time>2010-02-06T16:03:24Z</time>
      </trkpt>
      <trkpt lat="39.095380" lon="-4.935160">
        <ele>507.2</ele>
        <time>2010-02-06T16:03:41Z</time>
      </trkpt>
      <trkpt lat="39.095330" lon="-4.934930">
        <ele>504.8</ele>
        <time>2010-02-06T16:04:02Z</time>
      </trkpt>
      <trkpt lat="39.095270" lon="-4.934740">
        <ele>505.8</ele>
        <time>2010-02-06T16:04:18Z</time>
      </trkpt>
      <trkpt lat="39.095220" lon="-4.934530">
        <ele>505.8</ele>
        <time>2010-02-06T16:04:35Z</time>
      </trkpt>
      <trkpt lat="39.095170" lon="-4.934330">
        <ele>505.8</ele>
        <time>2010-02-06T16:04:52Z</time>
      </trkpt>
      <trkpt lat="39.095160" lon="-4.934270">
        <ele>505.8</ele>
        <time>2010-02-06T16:04:57Z</time>
      </trkpt>
      <trkpt lat="39.095110" lon="-4.934160">
        <ele>506.3</ele>
        <time>2010-02-06T16:05:07Z</time>
      </trkpt>
      <trkpt lat="39.095080" lon="-4.934010">
        <ele>505.3</ele>
        <time>2010-02-06T16:05:20Z</time>
      </trkpt>
      <trkpt lat="39.095000" lon="-4.933790">
        <ele>505.3</ele>
        <time>2010-02-06T16:05:38Z</time>
      </trkpt>
      <trkpt lat="39.094950" lon="-4.933550">
        <ele>503.9</ele>
        <time>2010-02-06T16:05:59Z</time>
      </trkpt>
      <trkpt lat="39.094890" lon="-4.933330">
        <ele>503.9</ele>
        <time>2010-02-06T16:06:17Z</time>
      </trkpt>
      <trkpt lat="39.094830" lon="-4.933080">
        <ele>501.9</ele>
        <time>2010-02-06T16:06:38Z</time>
      </trkpt>
      <trkpt lat="39.094800" lon="-4.932940">
        <ele>500.5</ele>
        <time>2010-02-06T16:06:55Z</time>
      </trkpt>
      <trkpt lat="39.094790" lon="-4.932870">
        <ele>500.0</ele>
        <time>2010-02-06T16:07:10Z</time>
      </trkpt>
      <trkpt lat="39.094730" lon="-4.932680">
        <ele>498.1</ele>
        <time>2010-02-06T16:07:26Z</time>
      </trkpt>
      <trkpt lat="39.094690" lon="-4.932550">
        <ele>498.1</ele>
        <time>2010-02-06T16:07:36Z</time>
      </trkpt>
      <trkpt lat="39.094650" lon="-4.932340">
        <ele>498.1</ele>
        <time>2010-02-06T16:07:52Z</time>
      </trkpt>
      <trkpt lat="39.094610" lon="-4.932150">
        <ele>497.1</ele>
        <time>2010-02-06T16:08:07Z</time>
      </trkpt>
      <trkpt lat="39.094550" lon="-4.931930">
        <ele>496.7</ele>
        <time>2010-02-06T16:08:25Z</time>
      </trkpt>
      <trkpt lat="39.094500" lon="-4.931740">
        <ele>498.1</ele>
        <time>2010-02-06T16:08:40Z</time>
      </trkpt>
      <trkpt lat="39.094460" lon="-4.931570">
        <ele>499.0</ele>
        <time>2010-02-06T16:08:54Z</time>
      </trkpt>
      <trkpt lat="39.094400" lon="-4.931390">
        <ele>502.4</ele>
        <time>2010-02-06T16:09:09Z</time>
      </trkpt>
      <trkpt lat="39.094350" lon="-4.931170">
        <ele>500.0</ele>
        <time>2010-02-06T16:09:29Z</time>
      </trkpt>
      <trkpt lat="39.094290" lon="-4.930980">
        <ele>500.5</ele>
        <time>2010-02-06T16:09:46Z</time>
      </trkpt>
      <trkpt lat="39.094280" lon="-4.930820">
        <ele>501.0</ele>
        <time>2010-02-06T16:10:02Z</time>
      </trkpt>
      <trkpt lat="39.094200" lon="-4.930580">
        <ele>500.5</ele>
        <time>2010-02-06T16:10:20Z</time>
      </trkpt>
      <trkpt lat="39.094110" lon="-4.930240">
        <ele>501.0</ele>
        <time>2010-02-06T16:10:41Z</time>
      </trkpt>
      <trkpt lat="39.094070" lon="-4.930060">
        <ele>498.6</ele>
        <time>2010-02-06T16:10:56Z</time>
      </trkpt>
      <trkpt lat="39.093980" lon="-4.929750">
        <ele>501.5</ele>
        <time>2010-02-06T16:11:18Z</time>
      </trkpt>
      <trkpt lat="39.093900" lon="-4.929500">
        <ele>502.9</ele>
        <time>2010-02-06T16:11:37Z</time>
      </trkpt>
      <trkpt lat="39.093860" lon="-4.929290">
        <ele>504.4</ele>
        <time>2010-02-06T16:11:52Z</time>
      </trkpt>
      <trkpt lat="39.093850" lon="-4.929160">
        <ele>501.9</ele>
        <time>2010-02-06T16:12:08Z</time>
      </trkpt>
      <trkpt lat="39.093840" lon="-4.928980">
        <ele>499.5</ele>
        <time>2010-02-06T16:12:27Z</time>
      </trkpt>
      <trkpt lat="39.093850" lon="-4.929000">
        <ele>497.6</ele>
        <time>2010-02-06T16:12:53Z</time>
      </trkpt>
      <trkpt lat="39.093870" lon="-4.929090">
        <ele>495.2</ele>
        <time>2010-02-06T16:13:04Z</time>
      </trkpt>
      <trkpt lat="39.093840" lon="-4.929030">
        <ele>498.1</ele>
        <time>2010-02-06T16:13:11Z</time>
      </trkpt>
      <trkpt lat="39.093830" lon="-4.929060">
        <ele>498.1</ele>
        <time>2010-02-06T16:13:25Z</time>
      </trkpt>
      <trkpt lat="39.093750" lon="-4.928830">
        <ele>498.1</ele>
        <time>2010-02-06T16:13:42Z</time>
      </trkpt>
      <trkpt lat="39.093560" lon="-4.928650">
        <ele>495.7</ele>
        <time>2010-02-06T16:14:03Z</time>
      </trkpt>
      <trkpt lat="39.093490" lon="-4.928620">
        <ele>495.2</ele>
        <time>2010-02-06T16:14:16Z</time>
      </trkpt>
      <trkpt lat="39.093470" lon="-4.928610">
        <ele>493.8</ele>
        <time>2010-02-06T16:14:34Z</time>
      </trkpt>
      <trkpt lat="39.093420" lon="-4.928630">
        <ele>493.8</ele>
        <time>2010-02-06T16:14:41Z</time>
      </trkpt>
      <trkpt lat="39.093270" lon="-4.928610">
        <ele>491.4</ele>
        <time>2010-02-06T16:14:58Z</time>
      </trkpt>
      <trkpt lat="39.093100" lon="-4.928610">
        <ele>488.5</ele>
        <time>2010-02-06T16:15:16Z</time>
      </trkpt>
      <trkpt lat="39.092960" lon="-4.928580">
        <ele>489.0</ele>
        <time>2010-02-06T16:15:31Z</time>
      </trkpt>
      <trkpt lat="39.092800" lon="-4.928550">
        <ele>487.0</ele>
        <time>2010-02-06T16:15:48Z</time>
      </trkpt>
      <trkpt lat="39.092660" lon="-4.928530">
        <ele>487.0</ele>
        <time>2010-02-06T16:16:07Z</time>
      </trkpt>
      <trkpt lat="39.092690" lon="-4.928560">
        <ele>485.6</ele>
        <time>2010-02-06T16:16:52Z</time>
      </trkpt>
      <trkpt lat="39.092680" lon="-4.928550">
        <ele>486.6</ele>
        <time>2010-02-06T16:17:05Z</time>
      </trkpt>
      <trkpt lat="39.092760" lon="-4.928570">
        <ele>488.5</ele>
        <time>2010-02-06T16:17:19Z</time>
      </trkpt>
      <trkpt lat="39.092760" lon="-4.928570">
        <ele>488.0</ele>
        <time>2010-02-06T16:17:21Z</time>
      </trkpt>
      <trkpt lat="39.092510" lon="-4.928570">
        <ele>487.0</ele>
        <time>2010-02-06T16:17:43Z</time>
      </trkpt>
      <trkpt lat="39.092370" lon="-4.928510">
        <ele>489.4</ele>
        <time>2010-02-06T16:17:56Z</time>
      </trkpt>
      <trkpt lat="39.092310" lon="-4.928480">
        <ele>490.4</ele>
        <time>2010-02-06T16:18:00Z</time>
      </trkpt>
      <trkpt lat="39.092070" lon="-4.928390">
        <ele>483.2</ele>
        <time>2010-02-06T16:18:22Z</time>
      </trkpt>
      <trkpt lat="39.091880" lon="-4.928270">
        <ele>483.7</ele>
        <time>2010-02-06T16:18:41Z</time>
      </trkpt>
      <trkpt lat="39.091680" lon="-4.928150">
        <ele>483.2</ele>
        <time>2010-02-06T16:19:00Z</time>
      </trkpt>
      <trkpt lat="39.091440" lon="-4.928010">
        <ele>485.1</ele>
        <time>2010-02-06T16:19:23Z</time>
      </trkpt>
      <trkpt lat="39.091260" lon="-4.927920">
        <ele>485.6</ele>
        <time>2010-02-06T16:19:41Z</time>
      </trkpt>
      <trkpt lat="39.091090" lon="-4.927840">
        <ele>484.2</ele>
        <time>2010-02-06T16:19:58Z</time>
      </trkpt>
      <trkpt lat="39.090890" lon="-4.927710">
        <ele>486.1</ele>
        <time>2010-02-06T16:20:18Z</time>
      </trkpt>
      <trkpt lat="39.090710" lon="-4.927600">
        <ele>484.2</ele>
        <time>2010-02-06T16:20:39Z</time>
      </trkpt>
      <trkpt lat="39.090510" lon="-4.927460">
        <ele>484.6</ele>
        <time>2010-02-06T16:21:02Z</time>
      </trkpt>
    </trkseg>
  </trk></gpx>